createdAt,value
2023-05-09T05:03:16.168Z,69.08
2023-05-09T05:04:16.028Z,68.85
2023-05-09T05:05:16.155Z,68.49
2023-05-09T05:06:16.936Z,68.18
2023-05-09T05:07:15.908Z,68.23
2023-05-09T05:08:16.887Z,67.55
2023-05-09T05:09:15.884Z,67.33
2023-05-09T05:10:16.871Z,67.14
2023-05-09T05:11:16.893Z,67.17
2023-05-09T05:12:16.847Z,66.97
2023-05-09T05:13:16.868Z,66.77
2023-05-09T05:14:15.828Z,67.35
2023-05-09T05:15:16.983Z,66.99
2023-05-09T05:16:16.825Z,66.78
2023-05-09T05:17:16.829Z,66.95
2023-05-09T05:18:15.798Z,66.74
2023-05-09T05:19:15.840Z,66.48
2023-05-09T05:20:16.795Z,67.60
2023-05-09T05:21:15.777Z,67.47
2023-05-09T05:22:15.820Z,67.24
2023-05-09T05:23:16.778Z,67.22
2023-05-09T05:24:15.786Z,66.90
2023-05-09T05:25:17.025Z,67.04
2023-05-09T05:26:16.883Z,66.67
2023-05-09T05:27:16.946Z,66.55
2023-05-09T05:28:15.981Z,66.40
2023-05-09T05:29:17.046Z,66.19
2023-05-09T05:30:16.979Z,66.12
2023-05-09T05:31:17.036Z,66.33
2023-05-09T05:32:17.083Z,66.59
2023-05-09T05:33:17.141Z,66.56
2023-05-09T05:34:17.180Z,66.48
2023-05-09T05:35:17.560Z,66.07
2023-05-09T05:36:17.238Z,66.08
2023-05-09T05:37:16.233Z,66.83
2023-05-09T05:38:17.333Z,66.68
2023-05-09T05:39:16.348Z,67.02
2023-05-09T05:40:17.390Z,67.21
2023-05-09T05:41:17.388Z,66.36
2023-05-09T05:42:17.428Z,66.68
2023-05-09T05:43:17.477Z,67.19
2023-05-09T05:44:16.521Z,66.93
2023-05-09T05:45:16.795Z,67.11
2023-05-09T05:46:17.621Z,67.83
2023-05-09T05:47:17.652Z,67.73
2023-05-09T05:48:16.841Z,67.36
2023-05-09T05:49:16.612Z,67.47
2023-05-09T05:50:16.622Z,66.50
2023-05-09T05:51:17.730Z,66.67
2023-05-09T05:52:16.628Z,66.64
2023-05-09T05:53:16.650Z,66.53
2023-05-09T05:54:17.687Z,66.80
2023-05-09T05:55:17.864Z,65.80
2023-05-09T05:56:17.690Z,65.92
2023-05-09T05:57:16.694Z,66.76
2023-05-09T05:58:17.694Z,67.00
2023-05-09T05:59:17.738Z,67.30
2023-05-09T06:00:17.749Z,67.00
2023-05-09T06:01:17.724Z,66.28
2023-05-09T06:02:17.779Z,66.80
2023-05-09T06:03:16.786Z,67.88
2023-05-09T06:04:16.765Z,67.02
2023-05-09T06:05:17.771Z,66.47
2023-05-09T06:06:17.826Z,67.42
2023-05-09T06:07:17.952Z,65.99
2023-05-09T06:09:50.539Z,65.16
2023-05-09T06:10:51.724Z,65.46
2023-05-09T06:11:50.562Z,66.56
2023-05-09T06:12:52.126Z,66.01
2023-05-09T06:13:54.139Z,66.43
2023-05-09T06:14:57.829Z,66.21
2023-05-09T06:17:10.023Z,65.76
2023-05-09T06:20:47.964Z,67.99
2023-05-09T06:21:49.123Z,67.39
2023-05-09T06:22:48.885Z,68.32
2023-05-09T06:24:05.813Z,68.44
2023-05-09T06:24:48.859Z,68.21
2023-05-09T06:25:48.852Z,68.47
2023-05-09T06:26:48.830Z,68.12
2023-05-09T06:27:47.926Z,69.00
2023-05-09T06:28:47.921Z,67.79
2023-05-09T06:29:47.901Z,67.38
2023-05-09T06:30:48.509Z,67.66
2023-05-09T06:31:49.103Z,67.77
2023-05-09T06:32:48.109Z,68.00
2023-05-09T06:33:48.809Z,68.75
2023-05-09T06:34:47.797Z,69.79
2023-05-09T06:35:48.807Z,67.99
2023-05-09T06:36:47.808Z,67.89
2023-05-09T06:37:49.291Z,67.81
2023-05-09T06:38:48.875Z,68.22
2023-05-09T06:39:47.765Z,67.73
2023-05-09T06:40:48.768Z,67.44
2023-05-09T06:41:48.778Z,66.88
2023-05-09T06:42:47.731Z,68.26
2023-05-09T06:43:49.953Z,67.13
2023-05-09T06:44:48.748Z,67.40
2023-05-09T06:45:48.713Z,67.35
2023-05-09T06:46:47.723Z,67.59
2023-05-09T06:47:48.714Z,68.38
2023-05-09T06:48:48.704Z,68.48
2023-05-09T06:49:48.706Z,68.26
2023-05-09T06:50:48.723Z,67.93
2023-05-09T06:55:16.941Z,67.02
2023-05-09T06:56:19.469Z,67.36
2023-05-09T06:57:17.195Z,68.00
2023-05-09T06:58:17.121Z,67.64
2023-05-09T06:59:16.105Z,67.99
2023-05-09T07:00:16.619Z,69.07
2023-05-09T07:01:16.145Z,69.19
2023-05-09T07:02:17.236Z,68.60
2023-05-09T07:03:17.186Z,68.06
2023-05-09T07:04:17.092Z,67.92
2023-05-09T07:05:17.434Z,68.17
2023-05-09T07:07:35.425Z,67.92
2023-05-09T07:08:35.983Z,67.59
2023-05-09T07:09:36.032Z,67.56
2023-05-09T07:10:35.080Z,67.30
2023-05-09T07:12:54.000Z,67.08
2023-05-09T07:13:54.017Z,66.31
2023-05-09T07:14:55.012Z,67.32
2023-05-09T07:15:54.307Z,65.93
2023-05-09T07:18:13.016Z,65.14
2023-05-09T07:19:12.931Z,64.36
2023-05-09T07:20:15.111Z,63.31
2023-05-09T07:21:13.594Z,62.80
2023-05-09T07:22:12.989Z,63.07
2023-05-09T07:23:14.411Z,62.57
2023-05-09T07:24:14.125Z,62.86
2023-05-09T07:25:13.178Z,62.61
2023-05-09T07:26:13.977Z,62.49
2023-05-09T07:27:13.924Z,62.42
2023-05-09T07:28:13.100Z,61.11
2023-05-09T07:29:13.991Z,61.09
2023-05-09T07:30:14.312Z,63.50
2023-05-09T07:31:13.168Z,64.08
2023-05-09T07:32:13.271Z,64.41
2023-05-09T07:33:14.338Z,62.74
2023-05-09T07:34:27.557Z,62.90
2023-05-09T07:39:11.229Z,62.19
2023-05-09T07:40:12.117Z,61.80
2023-05-09T10:06:41.316Z,51.40
2023-05-09T10:07:41.177Z,51.18
2023-05-09T10:08:42.185Z,51.28
2023-05-09T10:09:42.157Z,52.16
2023-05-09T10:10:41.166Z,52.53
2023-05-09T10:11:42.134Z,51.96
2023-05-09T10:12:42.172Z,51.99
2023-05-09T10:13:42.154Z,51.09
2023-05-09T10:14:41.129Z,50.10
2023-05-09T10:15:53.021Z,50.54
2023-05-09T10:16:44.283Z,48.74
2023-05-09T10:17:41.295Z,48.94
2023-05-09T10:18:41.277Z,49.18
2023-05-09T10:19:41.095Z,49.62
2023-05-09T10:20:42.089Z,50.58
2023-05-09T10:21:42.074Z,50.04
2023-05-09T10:22:42.221Z,49.85
2023-05-09T10:23:41.073Z,49.88
2023-05-09T10:24:42.093Z,50.11
2023-05-09T10:25:42.069Z,47.59
2023-05-09T10:26:41.054Z,47.95
2023-05-09T10:27:42.026Z,46.43
2023-05-09T10:28:42.023Z,45.19
2023-05-09T10:29:41.009Z,45.93
2023-05-09T10:30:41.024Z,45.04
2023-05-09T10:31:41.078Z,46.00
2023-05-09T10:32:42.024Z,45.26
2023-05-09T10:33:41.982Z,44.67
2023-05-09T10:34:41.979Z,44.96
2023-05-09T10:35:41.969Z,44.78
2023-05-09T10:36:41.994Z,43.38
2023-05-09T10:37:41.981Z,43.81
2023-05-09T10:38:42.053Z,44.40
2023-05-09T10:39:41.933Z,44.08
2023-05-09T10:40:40.935Z,44.03
2023-05-09T10:41:40.907Z,43.36
2023-05-09T10:42:40.934Z,42.87
2023-05-09T10:43:40.908Z,42.27
2023-05-09T10:44:41.936Z,41.79
2023-05-09T10:45:42.288Z,42.91
2023-05-09T10:46:40.967Z,42.28
2023-05-09T10:47:41.950Z,43.30
2023-05-09T10:48:40.859Z,45.08
2023-05-09T10:49:41.861Z,47.60
2023-05-09T10:50:40.897Z,50.23
2023-05-09T10:51:41.886Z,50.00
2023-05-09T10:52:41.954Z,49.99
2023-05-09T10:53:40.995Z,50.28
2023-05-09T10:54:41.947Z,50.03
2023-05-09T10:55:40.904Z,49.97
2023-05-09T10:56:40.868Z,48.31
2023-05-09T10:57:41.825Z,46.97
2023-05-09T10:58:41.829Z,45.54
2023-05-09T10:59:41.830Z,44.07
2023-05-09T11:00:40.857Z,43.55
2023-05-09T11:01:40.902Z,40.96
2023-05-09T11:02:42.022Z,41.27
2023-05-09T11:03:42.040Z,41.53
2023-05-09T11:04:40.974Z,41.63
2023-05-09T11:05:42.024Z,41.85
2023-05-09T11:06:41.088Z,41.22
2023-05-09T11:07:42.048Z,41.53
2023-05-09T11:08:42.033Z,42.08
2023-05-09T11:09:42.066Z,42.28
2023-05-09T11:10:42.198Z,41.73
2023-05-09T11:11:42.072Z,41.91
2023-05-09T11:12:41.177Z,42.66
2023-05-09T11:13:42.127Z,40.10
2023-05-09T11:14:41.160Z,40.57
2023-05-09T11:15:42.214Z,38.13
2023-05-09T11:16:41.253Z,38.47
2023-05-09T11:17:41.289Z,38.40
2023-05-09T11:18:41.272Z,38.19
2023-05-09T11:19:41.292Z,38.55
2023-05-09T11:20:41.427Z,38.13
2023-05-09T11:21:41.566Z,37.40
2023-05-09T11:22:42.375Z,37.99
2023-05-09T11:23:41.442Z,38.88
2023-05-09T11:24:42.450Z,39.20
2023-05-09T11:25:42.505Z,38.93
2023-05-09T11:26:42.640Z,39.15
2023-05-09T11:27:42.622Z,38.69
2023-05-09T11:28:42.921Z,39.07
2023-05-09T11:29:42.589Z,38.81
2023-05-09T11:30:41.752Z,39.27
2023-05-09T11:31:42.727Z,38.61
2023-05-09T11:32:42.798Z,37.77
2023-05-09T11:33:41.781Z,37.51
2023-05-09T11:34:41.789Z,36.04
2023-05-09T11:35:42.934Z,37.88
2023-05-09T11:36:42.317Z,37.00
2023-05-09T11:37:42.942Z,36.37
2023-05-09T11:38:42.904Z,36.83
2023-05-09T11:39:42.933Z,37.05
2023-05-09T11:40:42.952Z,36.58
2023-05-09T11:41:43.339Z,37.12
2023-05-09T11:42:43.162Z,37.14
2023-05-09T11:43:43.062Z,37.59
2023-05-09T11:44:42.074Z,38.32
2023-05-09T11:45:42.138Z,37.39
2023-05-09T11:46:43.100Z,37.17
2023-05-09T11:47:43.124Z,38.13
2023-05-09T11:48:42.198Z,35.18
2023-05-09T11:49:42.255Z,35.95
2023-05-09T11:50:43.238Z,36.93
2023-05-09T11:51:43.236Z,37.25
2023-05-09T11:52:43.267Z,36.06
2023-05-09T11:53:42.306Z,36.10
2023-05-09T11:54:43.352Z,35.36
2023-05-09T11:55:42.450Z,34.75
2023-05-09T11:56:43.450Z,34.81
2023-05-09T11:57:42.443Z,35.50
2023-05-09T11:58:43.583Z,34.71
2023-05-09T11:59:42.580Z,35.26
2023-05-09T12:00:42.524Z,35.44
2023-05-09T12:01:42.646Z,35.25
2023-05-09T12:02:43.759Z,36.70
2023-05-09T12:03:42.684Z,37.20
2023-05-09T12:04:43.862Z,36.94
2023-05-09T12:07:01.818Z,36.55
2023-05-09T12:08:02.502Z,36.91
2023-05-09T12:09:02.703Z,36.06
2023-05-09T12:10:02.635Z,36.20
2023-05-09T12:11:01.473Z,36.69
2023-05-09T12:12:02.372Z,36.21
2023-05-09T12:13:02.416Z,36.05
2023-05-09T12:14:02.504Z,35.43
2023-05-09T12:15:02.341Z,34.42
2023-05-09T12:16:02.398Z,35.16
2023-05-09T12:17:02.317Z,35.59
2023-05-09T12:18:01.350Z,35.56
2023-05-09T12:19:02.418Z,35.76
2023-05-09T12:20:01.625Z,35.61
2023-05-09T12:21:01.336Z,34.33
2023-05-09T12:22:02.272Z,34.79
2023-05-09T12:23:02.310Z,32.81
2023-05-09T12:24:02.275Z,33.35
2023-05-09T12:25:02.255Z,34.60
2023-05-09T12:26:02.283Z,35.30
2023-05-09T12:27:02.257Z,35.61
2023-05-09T12:28:02.229Z,35.42
2023-05-09T12:29:02.241Z,35.33
2023-05-09T12:30:02.355Z,34.94
2023-05-09T12:31:01.272Z,34.90
2023-05-09T12:32:02.249Z,35.18
2023-05-09T12:33:02.290Z,34.84
2023-05-09T12:34:03.334Z,34.60
2023-05-09T12:38:36.158Z,35.21
2023-05-09T12:39:35.977Z,35.07
2023-05-09T12:43:12.499Z,35.89
2023-05-09T12:44:11.873Z,36.03
2023-05-09T12:45:12.244Z,36.00
2023-05-09T12:46:13.264Z,36.87
2023-05-09T12:47:13.937Z,36.18
2023-05-09T12:48:13.091Z,35.33
2023-05-09T12:49:11.880Z,35.17
2023-05-09T12:50:12.391Z,36.03
2023-05-09T12:51:12.790Z,35.27
2023-05-09T12:52:12.313Z,35.12
2023-05-09T12:53:12.892Z,35.84
2023-05-09T12:54:12.916Z,36.04
2023-05-09T12:55:13.167Z,35.61
2023-05-09T12:56:12.968Z,35.94
2023-05-09T12:57:12.816Z,35.65
2023-05-09T12:58:12.824Z,36.17
2023-05-09T12:59:12.853Z,36.01
2023-05-09T13:00:13.192Z,35.57
2023-05-09T13:01:13.033Z,35.39
2023-05-09T13:02:11.991Z,35.38
2023-05-09T13:03:13.026Z,35.38
2023-05-09T13:04:13.254Z,36.31
2023-05-09T13:05:13.482Z,35.78
2023-05-09T13:06:13.109Z,35.46
2023-05-09T13:07:13.549Z,35.46
2023-05-09T13:08:13.196Z,34.94
2023-05-09T13:09:13.373Z,34.59
2023-05-09T13:10:12.707Z,35.05
2023-05-09T13:12:31.047Z,35.13
2023-05-09T13:13:32.003Z,34.46
2023-05-09T13:14:31.059Z,34.13
2023-05-09T13:15:32.032Z,33.73
2023-05-09T13:16:31.161Z,34.21
2023-05-09T13:17:31.072Z,34.36
2023-05-09T13:18:31.972Z,33.98
2023-05-09T13:19:30.963Z,35.42
2023-05-09T13:20:31.052Z,35.13
2023-05-09T13:21:32.108Z,34.83
2023-05-09T13:22:32.035Z,33.86
2023-05-09T13:23:31.945Z,33.46
2023-05-09T13:24:30.989Z,33.30
2023-05-09T13:25:31.912Z,34.53
2023-05-09T13:26:31.925Z,34.03
2023-05-09T13:27:30.973Z,34.58
2023-05-09T13:28:30.913Z,34.55
2023-05-09T13:29:30.908Z,33.86
2023-05-09T13:30:31.917Z,33.82
2023-05-09T13:31:31.913Z,33.91
2023-05-09T13:32:32.150Z,34.36
2023-05-09T13:33:30.921Z,33.31
2023-05-09T13:34:30.929Z,34.23
2023-05-09T13:35:31.862Z,33.44
2023-05-09T13:36:30.836Z,33.54
2023-05-09T13:37:31.855Z,32.84
2023-05-09T13:38:31.821Z,32.44
2023-05-09T13:39:31.817Z,32.83
2023-05-09T13:40:30.885Z,32.34
2023-05-09T13:41:31.818Z,32.26
2023-05-09T13:42:30.813Z,32.39
2023-05-09T13:43:30.799Z,32.47
2023-05-09T13:44:31.804Z,32.62
2023-05-09T13:45:31.770Z,32.86
2023-05-09T13:46:30.841Z,32.33
2023-05-09T13:47:30.808Z,32.52
2023-05-09T13:48:31.980Z,32.15
2023-05-09T13:49:30.914Z,32.43
2023-05-09T13:50:30.873Z,33.19
2023-05-09T13:51:31.897Z,32.46
2023-05-09T13:52:31.941Z,32.79
2023-05-09T13:53:32.058Z,32.07
2023-05-09T13:54:31.982Z,31.88
2023-05-09T13:55:31.992Z,32.15
2023-05-09T13:56:31.979Z,32.68
2023-05-09T13:57:32.018Z,33.22
2023-05-09T13:58:32.002Z,33.26
2023-05-09T13:59:31.029Z,32.83
2023-05-09T14:00:31.072Z,32.36
2023-05-09T14:01:32.197Z,32.16
2023-05-09T14:02:32.134Z,32.78
2023-05-09T14:03:32.155Z,32.49
2023-05-09T14:04:32.187Z,33.00
2023-05-09T14:05:31.158Z,32.99
2023-05-09T14:06:31.201Z,33.69
2023-05-09T14:07:32.308Z,32.93
2023-05-09T14:08:32.297Z,32.84
2023-05-09T14:09:32.316Z,32.52
2023-05-09T14:10:32.380Z,33.05
2023-05-09T14:11:32.415Z,33.11
2023-05-09T14:12:32.495Z,32.07
2023-05-09T14:13:32.574Z,32.40
2023-05-09T14:14:32.568Z,33.38
2023-05-09T14:15:31.540Z,33.71
2023-05-09T14:16:32.621Z,33.04
2023-05-09T14:17:31.512Z,32.43
2023-05-09T14:18:32.626Z,32.46
2023-05-09T14:19:31.555Z,32.19
2023-05-09T14:20:31.700Z,32.03
2023-05-09T14:21:32.757Z,32.62
2023-05-09T14:22:32.660Z,32.89
2023-05-09T14:23:31.784Z,33.59
2023-05-09T14:24:32.780Z,32.89
2023-05-09T14:25:32.808Z,32.86
2023-05-09T14:26:32.836Z,31.67
2023-05-09T14:27:32.840Z,32.07
2023-05-09T14:28:31.863Z,31.95
2023-05-09T14:29:32.873Z,32.96
2023-05-09T14:30:31.914Z,32.52
2023-05-09T14:31:32.006Z,33.45
2023-05-09T14:32:31.992Z,32.86
2023-05-09T14:33:32.987Z,32.48
2023-05-09T14:34:32.011Z,32.78
2023-05-09T14:35:33.087Z,32.77
2023-05-09T14:36:33.219Z,32.71
2023-05-09T14:37:33.085Z,32.80
2023-05-09T14:38:33.091Z,32.35
2023-05-09T14:39:33.154Z,32.95
2023-05-09T14:40:33.168Z,33.74
2023-05-09T14:41:33.222Z,33.63
2023-05-09T14:42:32.229Z,33.07
2023-05-09T14:43:32.213Z,32.53
2023-05-09T14:44:32.305Z,33.09
2023-05-09T14:45:33.308Z,32.91
2023-05-09T14:46:32.403Z,33.17
2023-05-09T14:47:32.384Z,33.50
2023-05-09T14:48:33.411Z,33.65
2023-05-09T14:49:32.498Z,33.92
2023-05-09T14:50:32.514Z,33.50
2023-05-09T14:51:33.521Z,33.61
2023-05-09T14:52:32.678Z,33.54
2023-05-09T14:53:33.573Z,33.86
2023-05-09T14:54:32.597Z,34.18
2023-05-09T14:55:32.620Z,33.35
2023-05-09T14:56:32.713Z,33.15
2023-05-09T14:57:33.726Z,32.45
2023-05-09T14:58:33.733Z,33.05
2023-05-09T14:59:34.767Z,33.08
2023-05-09T15:00:32.754Z,32.15
2023-05-09T15:01:32.913Z,31.75
2023-05-09T15:02:33.809Z,32.53
2023-05-09T15:03:33.733Z,32.48
2023-05-09T15:04:32.789Z,32.70
2023-05-09T15:05:33.729Z,32.12
2023-05-09T15:06:33.717Z,32.49
2023-05-09T15:07:33.729Z,33.17
2023-05-09T15:08:33.809Z,33.17
2023-05-09T15:09:32.680Z,33.08
2023-05-09T15:10:32.694Z,33.25
2023-05-09T15:11:46.688Z,32.82
2023-05-09T15:12:33.667Z,32.80
2023-05-09T15:13:33.777Z,32.51
2023-05-09T15:14:33.691Z,33.11
2023-05-09T15:15:33.651Z,33.03
2023-05-09T15:16:32.698Z,33.18
2023-05-09T15:17:32.645Z,33.12
2023-05-09T15:18:32.625Z,32.57
2023-05-09T15:19:33.634Z,32.40
2023-05-09T15:20:32.632Z,32.57
2023-05-09T15:21:32.610Z,32.99
2023-05-09T15:22:33.618Z,32.73
2023-05-09T15:23:33.634Z,33.05
2023-05-09T15:24:33.706Z,33.01
2023-05-09T15:25:32.582Z,32.19
2023-05-09T15:26:33.594Z,32.48
2023-05-09T15:27:32.565Z,32.12
2023-05-09T15:28:33.556Z,32.34
2023-05-09T15:29:33.552Z,32.56
